createdAt,value
2022-09-15T00:01:04.209Z,18.07
2022-09-15T00:06:07.890Z,17.57
2022-09-15T00:11:19.605Z,14.50
2022-09-15T00:16:24.313Z,13.33
2022-09-15T00:21:30.529Z,17.70
2022-09-15T00:26:33.530Z,24.43
2022-09-15T00:31:35.951Z,31.13
2022-09-15T00:36:38.393Z,22.50
2022-09-15T00:41:41.637Z,19.87
2022-09-15T00:47:03.975Z,18.17
2022-09-15T00:52:15.800Z,14.10
2022-09-15T00:57:26.372Z,14.57
2022-09-15T01:02:35.095Z,15.20
2022-09-15T01:08:00.438Z,12.60
2022-09-15T01:13:11.798Z,15.93
2022-09-15T01:18:59.076Z,16.90
2022-09-15T01:24:36.992Z,20.17
2022-09-15T01:29:57.260Z,18.57
2022-09-15T01:35:25.067Z,14.67
2022-09-15T01:40:34.316Z,13.63
2022-09-15T01:45:41.235Z,14.40
2022-09-15T01:50:48.492Z,11.70
2022-09-15T01:55:55.835Z,15.93
2022-09-15T02:01:08.211Z,10.03
2022-09-15T02:06:37.043Z,11.80
2022-09-15T02:11:53.050Z,18.47
2022-09-15T02:16:56.145Z,18.23
2022-09-15T02:22:23.373Z,18.77
2022-09-15T02:27:32.314Z,12.60
2022-09-15T02:32:37.027Z,12.57
2022-09-15T02:37:39.532Z,14.60
2022-09-15T02:42:56.030Z,17.70
2022-09-15T02:47:59.098Z,17.70
2022-09-15T02:53:01.528Z,13.40
2022-09-15T02:58:04.024Z,10.67
2022-09-15T03:03:06.748Z,14.07
2022-09-15T03:08:09.208Z,13.63
2022-09-15T03:13:11.570Z,15.50
2022-09-15T03:18:14.034Z,17.67
2022-09-15T03:23:16.434Z,11.30
2022-09-15T03:28:18.943Z,11.93
2022-09-15T03:33:23.493Z,12.97
2022-09-15T03:38:26.357Z,14.30
2022-09-15T03:43:30.277Z,15.97
2022-09-15T03:48:35.076Z,12.17
2022-09-15T03:53:41.923Z,13.57
2022-09-15T03:58:44.424Z,14.00
2022-09-15T04:03:51.418Z,16.10
2022-09-15T04:08:54.694Z,16.90
2022-09-15T04:13:57.214Z,14.13
2022-09-15T04:18:59.681Z,16.67
2022-09-15T04:24:04.754Z,14.93
2022-09-15T04:29:14.713Z,17.90
2022-09-15T04:34:17.066Z,17.13
2022-09-15T04:39:19.817Z,18.47
2022-09-15T04:44:22.253Z,21.27
2022-09-15T04:49:24.677Z,19.50
2022-09-15T04:54:27.135Z,18.53
2022-09-15T04:59:29.646Z,23.57
2022-09-15T05:04:32.525Z,30.03
2022-09-15T05:09:34.952Z,20.13
2022-09-15T05:14:37.293Z,89.13
2022-09-15T05:19:39.718Z,154.83
2022-09-15T05:24:42.261Z,65.10
2022-09-15T05:29:44.614Z,44.27
2022-09-15T05:34:47.021Z,24.07
2022-09-15T05:39:49.671Z,19.43
2022-09-15T05:44:52.107Z,18.13
2022-09-15T05:49:55.680Z,20.03
2022-09-15T05:55:18.600Z,21.10
2022-09-15T06:00:24.760Z,20.03
2022-09-15T06:05:30.464Z,18.20
2022-09-15T06:10:33.414Z,17.27
2022-09-15T06:15:35.853Z,17.73
2022-09-15T06:20:38.450Z,27.83
2022-09-15T06:25:40.848Z,14.33
2022-09-15T06:30:48.898Z,13.23
2022-09-15T06:35:51.348Z,13.87
2022-09-15T06:40:58.420Z,16.33
2022-09-15T06:46:11.494Z,10.20
2022-09-15T06:51:17.062Z,16.87
2022-09-15T06:56:24.200Z,14.17
2022-09-15T07:01:31.486Z,15.47
2022-09-15T07:06:35.015Z,13.17
2022-09-15T07:11:40.220Z,15.57
2022-09-15T07:16:42.639Z,12.27
2022-09-15T07:21:45.155Z,9.30
2022-09-15T07:26:47.715Z,15.27
2022-09-15T07:31:50.661Z,9.77
2022-09-15T07:36:53.191Z,9.37
2022-09-15T07:41:55.597Z,8.93
2022-09-15T07:46:58.085Z,10.03
2022-09-15T07:52:00.876Z,9.27
2022-09-15T07:57:03.349Z,7.73
2022-09-15T08:02:05.864Z,9.40
2022-09-15T08:07:08.545Z,12.67
2022-09-15T08:12:11.282Z,15.23
2022-09-15T08:17:13.753Z,12.17
2022-09-15T08:22:16.215Z,10.23
2022-09-15T08:27:18.590Z,17.07
2022-09-15T08:32:21.218Z,12.47
2022-09-15T08:37:23.676Z,13.20
2022-09-15T08:42:29.244Z,15.17
2022-09-15T08:47:34.067Z,12.20
2022-09-15T08:53:15.607Z,11.67
2022-09-15T08:58:21.341Z,9.50
2022-09-15T09:03:35.414Z,15.53
2022-09-15T09:08:50.390Z,6.17
2022-09-15T09:14:12.050Z,8.80
2022-09-15T09:19:32.912Z,6.80
2022-09-15T09:24:39.038Z,7.67
2022-09-15T09:29:49.939Z,8.07
2022-09-15T09:35:14.997Z,4.07
2022-09-15T09:40:18.177Z,4.03
2022-09-15T09:45:20.754Z,5.07
2022-09-15T09:50:38.894Z,7.03
2022-09-15T09:55:41.866Z,9.37
2022-09-15T10:00:44.657Z,18.60
2022-09-15T10:06:03.985Z,9.13
2022-09-15T10:11:09.205Z,8.40
2022-09-15T10:16:11.759Z,7.75
2022-09-15T10:21:15.890Z,8.70
2022-09-15T10:26:19.434Z,8.38
2022-09-15T10:31:32.783Z,6.88
2022-09-15T10:36:35.694Z,5.68
2022-09-15T10:41:52.035Z,5.47
2022-09-15T10:47:15.634Z,4.93
2022-09-15T10:52:48.979Z,4.85
2022-09-15T10:58:04.435Z,6.47
2022-09-15T11:03:31.097Z,6.45
2022-09-15T11:08:43.025Z,9.43
2022-09-15T11:14:06.079Z,5.65
2022-09-15T11:19:49.824Z,4.18
2022-09-15T11:24:59.447Z,2.88
2022-09-15T11:30:03.763Z,6.50
2022-09-15T11:35:42.511Z,6.25
2022-09-15T11:41:18.424Z,9.02
2022-09-15T11:46:29.689Z,2.60
2022-09-15T11:51:39.579Z,8.17
2022-09-15T11:56:45.229Z,7.63
2022-09-15T12:02:24.789Z,9.77
2022-09-15T12:07:32.805Z,5.37
2022-09-15T12:12:36.624Z,5.97
2022-09-15T12:17:47.626Z,6.20
2022-09-15T12:22:57.662Z,5.70
2022-09-15T12:28:22.051Z,5.70
2022-09-15T12:33:42.777Z,12.73
2022-09-15T12:38:49.468Z,8.93
2022-09-15T12:43:58.379Z,3.45
2022-09-15T12:49:03.231Z,9.98
2022-09-15T12:54:08.797Z,2.90
2022-09-15T12:59:29.880Z,7.47
2022-09-15T13:04:41.664Z,7.28
2022-09-15T13:09:59.177Z,4.00
2022-09-15T13:15:05.099Z,8.32
2022-09-15T13:20:16.849Z,12.50
2022-09-15T13:25:26.336Z,6.93
2022-09-15T13:31:00.432Z,14.80
2022-09-15T13:38:04.314Z,12.70
2022-09-15T13:42:15.943Z,18.70
2022-09-15T13:47:41.434Z,11.77
2022-09-15T13:53:07.179Z,16.57
2022-09-15T14:04:00.793Z,8.63
2022-09-15T14:09:09.536Z,5.83
2022-09-15T14:14:28.294Z,13.00
2022-09-15T14:19:37.868Z,8.70
2022-09-15T14:24:41.000Z,12.87
2022-09-15T14:29:44.517Z,16.27
2022-09-15T14:39:56.620Z,6.73
2022-09-15T14:50:34.368Z,7.57
2022-09-15T14:56:03.243Z,6.27
2022-09-15T15:01:27.640Z,6.70
2022-09-15T15:06:38.046Z,13.00
2022-09-15T15:11:42.117Z,9.30
2022-09-15T15:16:57.248Z,8.93
2022-09-15T15:22:27.403Z,4.10
2022-09-15T15:27:32.804Z,7.30
2022-09-15T15:32:35.280Z,14.47
2022-09-15T15:37:37.722Z,4.20
2022-09-15T15:42:56.434Z,10.63
2022-09-15T15:48:03.979Z,6.27
2022-09-15T15:53:06.367Z,9.00
2022-09-15T15:58:13.258Z,14.40
2022-09-15T16:03:19.118Z,6.57
2022-09-15T16:08:34.379Z,5.53
2022-09-15T16:13:36.811Z,5.40
2022-09-15T16:18:39.174Z,5.50
2022-09-15T16:23:41.592Z,9.07
2022-09-15T16:28:44.454Z,7.53
2022-09-15T16:33:46.982Z,14.10
2022-09-15T16:38:49.994Z,18.63
2022-09-15T16:43:53.578Z,15.33
2022-09-15T16:48:56.237Z,7.37
2022-09-15T16:53:59.170Z,11.63
2022-09-15T16:59:01.683Z,23.40
2022-09-15T17:04:14.880Z,23.70
2022-09-15T17:09:17.311Z,13.07
2022-09-15T17:14:19.818Z,19.30
2022-09-15T17:19:25.570Z,16.47
2022-09-15T17:24:28.142Z,20.87
2022-09-15T17:29:30.590Z,20.40
2022-09-15T17:34:33.053Z,26.40
2022-09-15T17:39:36.107Z,23.07
2022-09-15T17:44:38.491Z,29.70
2022-09-15T17:49:40.865Z,16.27
2022-09-15T17:54:43.206Z,19.93
2022-09-15T17:59:45.597Z,19.67
2022-09-15T18:04:48.249Z,15.50
2022-09-15T18:09:50.701Z,12.87
2022-09-15T18:14:53.171Z,14.07
2022-09-15T18:19:55.537Z,21.73
2022-09-15T18:24:57.898Z,19.50
2022-09-15T18:30:00.483Z,19.07
2022-09-15T18:35:02.952Z,19.50
2022-09-15T18:40:10.050Z,20.53
2022-09-15T18:45:15.014Z,60.27
2022-09-15T18:50:20.357Z,34.37
2022-09-15T18:55:23.085Z,21.47
2022-09-15T19:00:28.936Z,16.83
2022-09-15T19:05:32.746Z,14.27
2022-09-15T19:10:35.261Z,13.23
2022-09-15T19:15:39.716Z,14.43
2022-09-15T19:20:42.583Z,13.83
2022-09-15T19:25:45.061Z,12.60
2022-09-15T19:30:47.456Z,13.60
2022-09-15T19:35:59.985Z,13.47
2022-09-15T19:41:13.200Z,10.83
2022-09-15T19:46:19.016Z,13.20
2022-09-15T19:51:21.585Z,10.93
2022-09-15T19:56:27.838Z,12.93
2022-09-15T20:01:32.654Z,14.70
2022-09-15T20:06:35.903Z,12.70
2022-09-15T20:11:38.301Z,9.50
2022-09-15T20:16:40.930Z,9.47
2022-09-15T20:21:50.412Z,8.70
2022-09-15T20:26:53.964Z,7.40
2022-09-15T20:31:56.325Z,13.53
2022-09-15T20:36:58.715Z,16.03
2022-09-15T20:42:01.115Z,11.50
2022-09-15T20:47:03.568Z,27.63
2022-09-15T20:52:06.013Z,15.33
2022-09-15T20:57:09.468Z,17.80
2022-09-15T21:02:11.913Z,13.63
2022-09-15T21:07:14.385Z,15.40
2022-09-15T21:12:17.057Z,9.17
2022-09-15T21:17:19.921Z,6.80
2022-09-15T21:22:22.608Z,7.07
2022-09-15T21:27:28.121Z,7.20
2022-09-15T21:32:33.125Z,10.97
2022-09-15T21:37:35.843Z,9.27
2022-09-15T21:42:38.226Z,8.37
2022-09-15T21:47:40.661Z,8.13
2022-09-15T21:52:43.123Z,11.13
2022-09-15T21:57:46.134Z,6.83
2022-09-15T22:02:51.288Z,8.90
2022-09-15T22:07:53.696Z,6.67
2022-09-15T22:12:56.147Z,8.00
2022-09-15T22:17:58.522Z,12.10
2022-09-15T22:23:01.667Z,7.60
2022-09-15T22:28:04.058Z,8.43
2022-09-15T22:33:45.784Z,13.43
2022-09-15T22:38:48.379Z,14.87
2022-09-15T22:43:50.767Z,9.67
2022-09-15T22:48:56.786Z,12.97
2022-09-15T22:53:59.701Z,13.67
2022-09-15T22:59:02.153Z,17.73
2022-09-15T23:09:40.727Z,13.73
2022-09-15T23:14:43.119Z,11.63
2022-09-15T23:19:45.618Z,11.77
2022-09-15T23:24:48.123Z,10.57
2022-09-15T23:29:50.473Z,5.93
2022-09-15T23:34:53.466Z,6.63
2022-09-15T23:39:56.099Z,11.03
2022-09-15T23:44:58.451Z,9.83
2022-09-15T23:50:00.837Z,8.93
2022-09-15T23:55:03.766Z,8.40
